Time;durP1;ratioP1;P1;durP2;ratioP2;P2;SDS_P1;SDS_P2;PMS_P1;PMS_P2;Temp;Humidity;BMP_temperature;BMP_pressure;BME280_temperature;BME280_humidity;BME280_pressure;Samples;Min_cycle;Max_cycle;Signal;HPM_P1;HPM_P2
2023/05/17 00:01:24;;;;;;;8.52;3.90;;;;;;;-148.88;100.00;-17125.47;4939093;29;20026;-87
2023/05/17 00:03:53;;;;;;;6.57;2.15;;;;;;;-148.88;100.00;-17125.47;4954327;28;20027;-87
2023/05/17 00:06:19;;;;;;;7.50;3.92;;;;;;;-148.88;100.00;-17125.47;4938078;29;20027;-87
2023/05/17 00:08:44;;;;;;;7.50;2.13;;;;;;;-148.88;100.00;-17125.47;4955503;28;20429;-86
2023/05/17 00:11:10;;;;;;;7.15;2.28;;;;;;;-148.88;100.00;-17125.47;4937990;29;20027;-87
2023/05/17 00:13:36;;;;;;;6.20;2.58;;;;;;;-148.88;100.00;-17125.47;4955540;28;20035;-87
2023/05/17 00:16:03;;;;;;;11.18;3.75;;;;;;;-148.88;100.00;-17125.47;4955405;28;20023;-88
2023/05/17 00:18:28;;;;;;;7.10;2.50;;;;;;;-148.88;100.00;-17125.47;4937905;29;20015;-87
2023/05/17 00:20:53;;;;;;;10.05;4.03;;;;;;;-148.88;100.00;-17125.47;4937969;29;20031;-87
2023/05/17 00:23:19;;;;;;;7.72;2.67;;;;;;;-148.88;100.00;-17125.47;4954136;29;20024;-87
2023/05/17 00:25:45;;;;;;;7.35;2.67;;;;;;;-148.88;100.00;-17125.47;4938103;29;20118;-87
2023/05/17 00:28:10;;;;;;;10.23;2.65;;;;;;;-148.88;100.00;-17125.47;4937997;29;20486;-87
2023/05/17 00:30:36;;;;;;;8.88;3.13;;;;;;;-148.88;100.00;-17125.47;4937822;29;20035;-87
2023/05/17 00:33:01;;;;;;;6.82;2.28;;;;;;;-148.88;100.00;-17125.47;4937895;29;20027;-87
2023/05/17 00:35:27;;;;;;;7.57;2.55;;;;;;;-148.88;100.00;-17125.47;4938137;29;20477;-87
2023/05/17 00:37:52;;;;;;;12.35;4.75;;;;;;;-148.88;100.00;-17125.47;4953895;28;20118;-88
2023/05/17 00:40:17;;;;;;;12.10;4.72;;;;;;;-148.88;100.00;-17125.47;4938050;29;20058;-87
2023/05/17 00:42:43;;;;;;;14.68;5.18;;;;;;;-148.88;100.00;-17125.47;4940221;29;20031;-87
2023/05/17 00:45:09;;;;;;;9.52;2.92;;;;;;;-148.88;100.00;-17125.47;4941730;29;20030;-88
2023/05/17 00:47:34;;;;;;;7.30;2.83;;;;;;;-148.88;100.00;-17125.47;4941852;29;20050;-88
2023/05/17 00:50:00;;;;;;;9.40;2.67;;;;;;;-148.88;100.00;-17125.47;4957594;28;20117;-88
2023/05/17 00:52:25;;;;;;;11.30;4.28;;;;;;;-148.88;100.00;-17125.47;4941648;29;20082;-87
2023/05/17 00:54:51;;;;;;;7.80;2.72;;;;;;;-148.88;100.00;-17125.47;4941526;29;20508;-86
2023/05/17 00:57:17;;;;;;;7.28;2.72;;;;;;;-148.88;100.00;-17125.47;4941561;29;20389;-87
2023/05/17 00:59:43;;;;;;;7.90;2.75;;;;;;;-148.88;100.00;-17125.47;4941468;29;20378;-88
2023/05/17 01:02:10;;;;;;;11.02;2.75;;;;;;;-148.88;100.00;-17125.47;4941417;29;20027;-88
2023/05/17 01:04:36;;;;;;;11.07;4.72;;;;;;;-148.88;100.00;-17125.47;4941418;29;20462;-87
2023/05/17 01:07:02;;;;;;;6.78;2.63;;;;;;;-148.88;100.00;-17125.47;4958437;28;20102;-86
2023/05/17 01:09:28;;;;;;;12.18;2.65;;;;;;;-148.88;100.00;-17125.47;4941427;29;20031;-87
2023/05/17 01:12:21;;;;;;;10.80;2.83;;;;;;;-148.88;100.00;-17125.47;4941319;29;20019;-86
2023/05/17 01:14:56;;;;;;;15.68;5.70;;;;;;;-148.88;100.00;-17125.47;4940844;29;20106;-89
2023/05/17 01:17:34;;;;;;;8.63;2.40;;;;;;;-148.88;100.00;-17125.47;4941265;29;20023;-87
2023/05/17 01:20:00;;;;;;;8.73;2.47;;;;;;;-148.88;100.00;-17125.47;4957049;28;20485;-86
2023/05/17 01:22:38;;;;;;;9.32;2.95;;;;;;;-148.88;100.00;-17125.47;5036673;23;20054;-84
2023/05/17 01:25:12;;;;;;;10.52;3.28;;;;;;;-148.88;100.00;-17125.47;5022861;28;20056;-85
2023/05/17 01:27:40;;;;;;;8.75;2.88;;;;;;;-148.88;100.00;-17125.47;5022995;28;20030;-86
2023/05/17 01:30:09;;;;;;;16.17;5.38;;;;;;;-148.88;100.00;-17125.47;5037674;28;20029;-85
2023/05/17 01:32:35;;;;;;;10.55;2.83;;;;;;;-148.88;100.00;-17125.47;5009282;28;20026;-85
2023/05/17 01:35:03;;;;;;;11.15;2.70;;;;;;;-148.88;100.00;-17125.47;5020815;28;20104;-85
2023/05/17 01:37:29;;;;;;;11.95;3.20;;;;;;;-148.88;100.00;-17125.47;5021889;28;20022;-85
2023/05/17 01:39:54;;;;;;;13.18;3.25;;;;;;;-148.88;100.00;-17125.47;5021542;28;20022;-84
2023/05/17 01:42:26;;;;;;;8.75;3.05;;;;;;;-148.88;100.00;-17125.47;5003455;28;20068;-84
2023/05/17 01:45:20;;;;;;;5.93;2.70;;;;;;;-148.88;100.00;-17125.47;5020203;28;20030;-85
2023/05/17 01:48:14;;;;;;;10.75;3.10;;;;;;;-148.88;100.00;-17125.47;5020236;28;20026;-84
2023/05/17 01:50:40;;;;;;;9.55;2.78;;;;;;;-148.88;100.00;-17125.47;5003612;28;20026;-86
2023/05/17 01:53:25;;;;;;;9.63;2.83;;;;;;;-148.88;100.00;-17125.47;5002828;28;20064;-85
2023/05/17 01:55:55;;;;;;;11.90;4.47;;;;;;;-148.88;100.00;-17125.47;5003840;28;20022;-85
2023/05/17 01:58:25;;;;;;;12.68;3.20;;;;;;;-148.88;100.00;-17125.47;5002646;28;20046;-85
2023/05/17 02:00:54;;;;;;;16.60;4.03;;;;;;;-148.88;100.00;-17125.47;5003000;28;20021;-85
2023/05/17 02:03:20;;;;;;;9.85;3.13;;;;;;;-148.88;100.00;-17125.47;5002381;28;20049;-85
2023/05/17 02:05:48;;;;;;;9.73;3.67;;;;;;;-148.88;100.00;-17125.47;4999950;28;20037;-83
2023/05/17 02:08:20;;;;;;;6.43;3.53;;;;;;;-148.88;100.00;-17125.47;5019030;28;20096;-84
2023/05/17 02:10:45;;;;;;;13.70;6.03;;;;;;;-148.88;100.00;-17125.47;5002599;28;20022;-85
2023/05/17 02:13:11;;;;;;;12.55;3.33;;;;;;;-148.88;100.00;-17125.47;5005506;28;20547;-85
2023/05/17 02:15:36;;;;;;;11.52;3.55;;;;;;;-148.88;100.00;-17125.47;5005259;28;20452;-85
2023/05/17 02:18:02;;;;;;;13.15;3.95;;;;;;;-148.88;100.00;-17125.47;5022173;28;20111;-85
2023/05/17 02:20:27;;;;;;;15.13;3.65;;;;;;;-148.88;100.00;-17125.47;5003866;28;20067;-85
2023/05/17 02:22:53;;;;;;;18.48;3.83;;;;;;;-148.88;100.00;-17125.47;5022575;28;20053;-84
2023/05/17 02:25:18;;;;;;;10.70;3.88;;;;;;;-148.88;100.00;-17125.47;5012725;28;20010;-84
2023/05/17 02:27:44;;;;;;;15.30;6.25;;;;;;;-148.88;100.00;-17125.47;5005470;28;20049;-85
2023/05/17 02:30:09;;;;;;;11.70;3.22;;;;;;;-148.88;100.00;-17125.47;5004810;28;20468;-86
2023/05/17 02:32:35;;;;;;;20.88;6.85;;;;;;;-148.88;100.00;-17125.47;5005212;28;20452;-84
2023/05/17 02:35:00;;;;;;;10.98;4.38;;;;;;;-148.88;100.00;-17125.47;5005736;28;20029;-85
2023/05/17 02:37:26;;;;;;;13.07;3.67;;;;;;;-148.88;100.00;-17125.47;5003520;28;20518;-85
2023/05/17 02:39:51;;;;;;;11.52;3.30;;;;;;;-148.88;100.00;-17125.47;5002766;28;20026;-87
2023/05/17 02:42:19;;;;;;;10.65;3.45;;;;;;;-148.88;100.00;-17125.47;5017326;28;20025;-84
2023/05/17 02:44:47;;;;;;;15.60;4.15;;;;;;;-148.88;100.00;-17125.47;5000885;28;20576;-86
2023/05/17 02:47:12;;;;;;;15.98;4.65;;;;;;;-148.88;100.00;-17125.47;5002458;28;20101;-86
2023/05/17 02:49:37;;;;;;;17.02;3.67;;;;;;;-148.88;100.00;-17125.47;5020405;28;20080;-83
2023/05/17 02:52:03;;;;;;;12.80;3.58;;;;;;;-148.88;100.00;-17125.47;5002708;28;20022;-86
2023/05/17 02:54:29;;;;;;;16.17;3.90;;;;;;;-148.88;100.00;-17125.47;5002959;28;20498;-86
2023/05/17 02:56:54;;;;;;;17.00;3.83;;;;;;;-148.88;100.00;-17125.47;5001475;28;20435;-85
2023/05/17 02:59:20;;;;;;;12.00;4.40;;;;;;;-148.88;100.00;-17125.47;5001256;28;20014;-86
2023/05/17 03:01:45;;;;;;;19.27;6.90;;;;;;;-148.88;100.00;-17125.47;5001776;28;20056;-86
2023/05/17 03:04:11;;;;;;;13.57;4.60;;;;;;;-148.88;100.00;-17125.47;5018740;28;20057;-86
2023/05/17 03:06:37;;;;;;;11.20;3.35;;;;;;;-148.88;100.00;-17125.47;5001398;28;20050;-86
2023/05/17 03:09:02;;;;;;;15.63;4.07;;;;;;;-148.88;100.00;-17125.47;5000988;28;20041;-86
2023/05/17 03:11:27;;;;;;;17.05;4.57;;;;;;;-148.88;100.00;-17125.47;5001598;28;20041;-86
2023/05/17 03:13:53;;;;;;;10.50;4.25;;;;;;;-148.88;100.00;-17125.47;5018871;28;20086;-85
2023/05/17 03:16:18;;;;;;;20.50;7.22;;;;;;;-148.88;100.00;-17125.47;4998974;28;20495;-87
2023/05/17 03:18:44;;;;;;;15.55;4.75;;;;;;;-148.88;100.00;-17125.47;4998925;28;20014;-86
2023/05/17 03:21:09;;;;;;;10.60;3.20;;;;;;;-148.88;100.00;-17125.47;4999250;28;20120;-86
2023/05/17 03:23:34;;;;;;;15.07;3.50;;;;;;;-148.88;100.00;-17125.47;5017599;28;20034;-85
2023/05/17 03:26:00;;;;;;;19.80;4.65;;;;;;;-148.88;100.00;-17125.47;5000654;28;20048;-86
2023/05/17 03:28:25;;;;;;;11.35;4.38;;;;;;;-148.88;100.00;-17125.47;5018256;28;20026;-86
2023/05/17 03:30:51;;;;;;;17.45;4.43;;;;;;;-148.88;100.00;-17125.47;5000307;28;20026;-85
2023/05/17 03:33:17;;;;;;;19.08;4.90;;;;;;;-148.88;100.00;-17125.47;4999917;28;20041;-86
2023/05/17 03:35:45;;;;;;;14.77;3.60;;;;;;;-148.88;100.00;-17125.47;5018757;28;20025;-85
2023/05/17 03:38:10;;;;;;;17.20;4.60;;;;;;;-148.88;100.00;-17125.47;5019715;28;20495;-85
2023/05/17 03:40:36;;;;;;;15.02;4.55;;;;;;;-148.88;100.00;-17125.47;5006193;28;20136;-86
2023/05/17 03:43:01;;;;;;;18.58;4.40;;;;;;;-148.88;100.00;-17125.47;5024179;28;20040;-84
2023/05/17 03:45:27;;;;;;;23.38;8.07;;;;;;;-148.88;100.00;-17125.47;5006047;28;20061;-85
2023/05/17 03:47:52;;;;;;;19.23;4.32;;;;;;;-148.88;100.00;-17125.47;5023347;28;20021;-85
2023/05/17 03:50:18;;;;;;;15.38;4.22;;;;;;;-148.88;100.00;-17125.47;5023430;28;20026;-84
2023/05/17 03:52:44;;;;;;;9.95;3.92;;;;;;;-148.88;100.00;-17125.47;5000629;28;20021;-84
2023/05/17 03:55:10;;;;;;;15.27;3.72;;;;;;;-148.88;100.00;-17125.47;5001451;28;20026;-84
2023/05/17 03:57:35;;;;;;;10.90;4.53;;;;;;;-148.88;100.00;-17125.47;5002021;28;20014;-83
2023/05/17 04:00:01;;;;;;;15.73;4.30;;;;;;;-148.88;100.00;-17125.47;5002421;28;20125;-85
2023/05/17 04:02:26;;;;;;;10.80;4.30;;;;;;;-148.88;100.00;-17125.47;5003564;28;20403;-84
2023/05/17 04:04:51;;;;;;;24.65;8.30;;;;;;;-148.88;100.00;-17125.47;5000447;28;20030;-85
2023/05/17 04:07:17;;;;;;;13.98;3.97;;;;;;;-148.88;100.00;-17125.47;5001460;28;20518;-85
2023/05/17 04:09:42;;;;;;;14.15;4.40;;;;;;;-148.88;100.00;-17125.47;5021450;28;20033;-86
2023/05/17 04:12:09;;;;;;;16.50;4.30;;;;;;;-148.88;100.00;-17125.47;5005445;28;20124;-86
2023/05/17 04:14:35;;;;;;;20.20;4.88;;;;;;;-148.88;100.00;-17125.47;5004552;28;20026;-85
2023/05/17 04:17:01;;;;;;;13.57;5.03;;;;;;;-148.88;100.00;-17125.47;5003376;28;20034;-86
2023/05/17 04:19:26;;;;;;;14.13;4.10;;;;;;;-148.88;100.00;-17125.47;5004431;28;20028;-85
2023/05/17 04:21:52;;;;;;;25.80;9.55;;;;;;;-148.88;100.00;-17125.47;5005381;28;20030;-85
2023/05/17 04:24:17;;;;;;;12.85;4.55;;;;;;;-148.88;100.00;-17125.47;5021215;28;20391;-85
2023/05/17 04:26:43;;;;;;;15.93;4.45;;;;;;;-148.88;100.00;-17125.47;5002675;28;20026;-87
2023/05/17 04:29:08;;;;;;;12.80;4.95;;;;;;;-148.88;100.00;-17125.47;4998958;28;20050;-86
2023/05/17 04:31:34;;;;;;;27.15;9.23;;;;;;;-148.88;100.00;-17125.47;4999325;28;20041;-85
2023/05/17 04:33:59;;;;;;;14.27;4.90;;;;;;;-148.88;100.00;-17125.47;5018805;28;20022;-85
2023/05/17 04:36:25;;;;;;;14.73;4.78;;;;;;;-148.88;100.00;-17125.47;5018633;28;20029;-85
2023/05/17 04:38:50;;;;;;;25.55;5.28;;;;;;;-148.88;100.00;-17125.47;5001775;28;20044;-85
2023/05/17 04:41:16;;;;;;;15.60;4.85;;;;;;;-148.88;100.00;-17125.47;5001268;28;20097;-85
2023/05/17 04:43:41;;;;;;;18.05;5.32;;;;;;;-148.88;100.00;-17125.47;5002169;28;20428;-85
2023/05/17 04:46:07;;;;;;;17.60;4.85;;;;;;;-148.88;100.00;-17125.47;5002705;28;20029;-86
2023/05/17 04:48:32;;;;;;;16.88;4.80;;;;;;;-148.88;100.00;-17125.47;5000504;28;20164;-85
2023/05/17 04:51:06;;;;;;;20.02;5.28;;;;;;;-148.88;100.00;-17125.47;5020205;28;20022;-85
2023/05/17 04:53:32;;;;;;;17.45;4.40;;;;;;;-148.88;100.00;-17125.47;5003964;28;20033;-86
2023/05/17 04:55:57;;;;;;;16.30;4.97;;;;;;;-148.88;100.00;-17125.47;5002263;28;20030;-85
2023/05/17 04:58:23;;;;;;;15.90;4.53;;;;;;;-148.88;100.00;-17125.47;5002596;28;20070;-86
2023/05/17 05:00:49;;;;;;;21.33;5.85;;;;;;;-148.88;100.00;-17125.47;5002182;28;20025;-86
2023/05/17 05:03:14;;;;;;;14.65;3.92;;;;;;;-148.88;100.00;-17125.47;5001834;28;20037;-85
2023/05/17 05:05:40;;;;;;;14.98;4.82;;;;;;;-148.88;100.00;-17125.47;5015915;28;20059;-84
2023/05/17 05:08:05;;;;;;;10.60;4.05;;;;;;;-148.88;100.00;-17125.47;5018205;28;20022;-84
2023/05/17 05:10:30;;;;;;;13.55;4.22;;;;;;;-148.88;100.00;-17125.47;5019503;28;20022;-85
2023/05/17 05:12:57;;;;;;;18.05;5.90;;;;;;;-148.88;100.00;-17125.47;5019993;28;20025;-84
2023/05/17 05:15:22;;;;;;;15.77;4.70;;;;;;;-148.88;100.00;-17125.47;5002929;28;20022;-86
2023/05/17 05:17:48;;;;;;;10.15;3.95;;;;;;;-148.88;100.00;-17125.47;5004807;28;20084;-84
2023/05/17 05:20:13;;;;;;;11.95;3.63;;;;;;;-148.88;100.00;-17125.47;5007239;28;20026;-84
2023/05/17 05:22:38;;;;;;;15.35;4.93;;;;;;;-148.88;100.00;-17125.47;5006765;28;20060;-85
2023/05/17 05:25:04;;;;;;;17.17;4.20;;;;;;;-148.88;100.00;-17125.47;5025018;28;20057;-85
2023/05/17 05:27:30;;;;;;;10.38;3.38;;;;;;;-148.88;100.00;-17125.47;5007504;28;20033;-84
2023/05/17 05:29:55;;;;;;;23.52;6.55;;;;;;;-148.88;100.00;-17125.47;5009872;28;20107;-82
2023/05/17 05:32:20;;;;;;;15.10;3.65;;;;;;;-148.88;100.00;-17125.47;5024542;28;20018;-82
2023/05/17 05:34:46;;;;;;;13.93;3.50;;;;;;;-148.88;100.00;-17125.47;5025880;28;20025;-84
2023/05/17 05:37:11;;;;;;;10.95;3.08;;;;;;;-148.88;100.00;-17125.47;5008657;28;20025;-85
2023/05/17 05:39:36;;;;;;;13.23;2.83;;;;;;;-148.88;100.00;-17125.47;5008687;28;20072;-84
2023/05/17 05:42:03;;;;;;;13.05;3.55;;;;;;;-148.88;100.00;-17125.47;5002048;28;20033;-83
2023/05/17 05:44:29;;;;;;;14.43;2.95;;;;;;;-148.88;100.00;-17125.47;5022418;28;20026;-83
2023/05/17 05:46:54;;;;;;;22.77;4.38;;;;;;;-148.88;100.00;-17125.47;5005823;28;20021;-82
2023/05/17 05:49:20;;;;;;;14.52;2.40;;;;;;;-148.88;100.00;-17125.47;5006109;28;20080;-83
2023/05/17 05:51:48;;;;;;;10.63;2.45;;;;;;;-148.88;100.00;-17125.47;5006016;28;20018;-85
2023/05/17 05:54:13;;;;;;;20.45;3.05;;;;;;;-148.88;100.00;-17125.47;5022628;28;20032;-85
2023/05/17 05:56:39;;;;;;;11.32;2.55;;;;;;;-148.88;100.00;-17125.47;5004521;28;20026;-85
2023/05/17 05:59:04;;;;;;;19.33;3.60;;;;;;;-148.88;100.00;-17125.47;5005718;28;20029;-85
2023/05/17 06:01:33;;;;;;;10.73;2.53;;;;;;;-148.88;100.00;-17125.47;5007845;28;20025;-84
2023/05/17 06:03:59;;;;;;;12.13;2.75;;;;;;;-148.88;100.00;-17125.47;5005583;28;20574;-86
2023/05/17 06:06:24;;;;;;;10.93;2.67;;;;;;;-148.88;100.00;-17125.47;5025936;28;20029;-85
2023/05/17 06:08:49;;;;;;;13.05;3.17;;;;;;;-148.88;100.00;-17125.47;5022791;28;20029;-84
2023/05/17 06:11:20;;;;;;;10.75;1.95;;;;;;;-148.88;100.00;-17125.47;5007670;28;20022;-85
2023/05/17 06:13:46;;;;;;;8.65;2.05;;;;;;;-148.88;100.00;-17125.47;5008400;28;20030;-86
2023/05/17 06:16:11;;;;;;;10.65;2.20;;;;;;;-148.88;100.00;-17125.47;5024141;28;20391;-85
2023/05/17 06:18:37;;;;;;;10.30;2.53;;;;;;;-148.88;100.00;-17125.47;5018446;28;20463;-85
2023/05/17 06:21:02;;;;;;;11.57;2.45;;;;;;;-148.88;100.00;-17125.47;5019282;28;20080;-84
2023/05/17 06:23:28;;;;;;;9.63;2.58;;;;;;;-148.88;100.00;-17125.47;5008270;28;20085;-84
2023/05/17 06:25:53;;;;;;;7.57;1.60;;;;;;;-148.88;98.56;-17125.47;5008751;28;20025;-86
2023/05/17 06:28:18;;;;;;;13.85;1.98;;;;;;;-148.88;100.00;-17125.47;5004812;28;20021;-84
2023/05/17 06:30:44;;;;;;;10.38;1.80;;;;;;;-148.88;93.92;-17125.47;5025841;28;20022;-86
2023/05/17 06:33:09;;;;;;;6.30;1.42;;;;;;;-148.88;95.11;-17125.47;5005022;28;20124;-86
2023/05/17 06:35:35;;;;;;;8.30;1.98;;;;;;;-148.88;90.71;-17125.47;5003618;28;20029;-86
2023/05/17 06:38:03;;;;;;;15.55;1.60;;;;;;;-148.88;88.56;-17125.47;5004820;28;20404;-85
2023/05/17 06:40:29;;;;;;;8.23;1.50;;;;;;;-148.88;88.77;-17125.47;5003784;28;20018;-85
2023/05/17 06:42:54;;;;;;;7.55;1.77;;;;;;;-148.88;87.12;-17125.47;5004890;28;20495;-86
2023/05/17 06:45:20;;;;;;;11.63;1.90;;;;;;;-148.88;86.10;-17125.47;5002482;28;20022;-84
2023/05/17 06:47:46;;;;;;;13.75;3.10;;;;;;;-148.88;86.94;-17125.47;5003391;28;20467;-85
2023/05/17 06:50:14;;;;;;;5.65;1.42;;;;;;;-148.88;88.95;-17125.47;5020468;28;20445;-86
2023/05/17 06:52:40;;;;;;;10.25;2.90;;;;;;;-148.88;87.39;-17125.47;5000599;28;20050;-85
2023/05/17 06:55:06;;;;;;;12.43;3.17;;;;;;;-148.88;91.93;-17125.47;4999601;28;20049;-85
2023/05/17 06:57:31;;;;;;;8.90;2.00;;;;;;;-148.88;90.56;-17125.47;5000243;28;20026;-86
2023/05/17 06:59:57;;;;;;;11.80;1.75;;;;;;;-148.88;93.33;-17125.47;5018363;28;20036;-85
2023/05/17 07:02:22;;;;;;;8.43;1.95;;;;;;;-148.88;94.92;-17125.47;5000975;28;20021;-85
2023/05/17 07:04:47;;;;;;;11.15;1.60;;;;;;;-148.88;91.72;-17125.47;5020321;28;20546;-85
2023/05/17 07:07:13;;;;;;;12.65;3.00;;;;;;;-148.88;90.12;-17125.47;5003334;28;20026;-86
2023/05/17 07:09:42;;;;;;;6.35;1.90;;;;;;;-148.88;93.70;-17125.47;5003935;28;20060;-86
2023/05/17 07:12:07;;;;;;;10.30;1.60;;;;;;;-148.88;91.97;-17125.47;5019918;28;20026;-84
2023/05/17 07:14:32;;;;;;;10.55;2.08;;;;;;;-148.88;90.63;-17125.47;5018562;28;20046;-86
2023/05/17 07:16:58;;;;;;;5.10;1.60;;;;;;;-148.88;89.93;-17125.47;5019934;28;20547;-86
2023/05/17 07:19:25;;;;;;;7.10;1.60;;;;;;;-148.88;89.36;-17125.47;5020285;28;20022;-86
2023/05/17 07:21:51;;;;;;;13.82;2.80;;;;;;;-148.88;84.14;-17125.47;5002213;28;20036;-85
2023/05/17 07:24:16;;;;;;;8.07;1.88;;;;;;;-148.88;84.44;-17125.47;5008023;28;20480;-84
2023/05/17 07:26:42;;;;;;;9.43;1.88;;;;;;;-148.88;81.14;-17125.47;5024331;28;20028;-85
2023/05/17 07:29:07;;;;;;;6.65;1.65;;;;;;;-148.88;81.31;-17125.47;5001363;28;20125;-85
2023/05/17 07:31:33;;;;;;;8.90;1.58;;;;;;;-148.88;84.77;-17125.47;5000316;28;20026;-85
2023/05/17 07:34:01;;;;;;;12.43;2.72;;;;;;;-148.88;78.62;-17125.47;5020129;28;20030;-86
2023/05/17 07:36:29;;;;;;;10.65;1.77;;;;;;;-148.88;75.50;-17125.47;5020751;28;20388;-86
2023/05/17 07:38:55;;;;;;;14.45;2.58;;;;;;;-148.88;80.37;-17125.47;5021522;28;20059;-86
2023/05/17 07:41:22;;;;;;;7.93;2.60;;;;;;;-148.88;81.67;-17125.47;5022021;28;20032;-87
2023/05/17 07:43:48;;;;;;;5.65;1.25;;;;;;;-148.88;79.98;-17125.47;5004878;28;20029;-85
2023/05/17 07:46:13;;;;;;;9.60;2.35;;;;;;;-148.88;76.99;-17125.47;5003353;28;20025;-86
2023/05/17 07:48:39;;;;;;;11.55;2.75;;;;;;;-148.88;80.37;-17125.47;5019709;28;20088;-87
2023/05/17 07:51:04;;;;;;;11.13;2.45;;;;;;;-148.88;74.06;-17125.47;5016635;28;20017;-86
2023/05/17 07:53:33;;;;;;;13.57;2.03;;;;;;;-148.88;69.63;-17125.47;5001163;28;20025;-85
2023/05/17 07:56:04;;;;;;;6.00;1.73;;;;;;;-148.88;76.17;-17125.47;5000070;28;20030;-87
2023/05/17 07:58:30;;;;;;;5.70;1.90;;;;;;;-148.88;76.37;-17125.47;5000407;28;20531;-86
2023/05/17 08:00:55;;;;;;;6.28;1.83;;;;;;;-148.88;75.30;-17125.47;4999139;28;20029;-86
2023/05/17 08:03:21;;;;;;;9.13;2.33;;;;;;;-148.88;75.31;-17125.47;5017883;28;20034;-87
2023/05/17 08:05:55;;;;;;;8.27;2.10;;;;;;;-148.88;71.31;-17125.47;4998950;28;20025;-86
2023/05/17 08:08:21;;;;;;;7.35;2.00;;;;;;;-148.88;75.54;-17125.47;4998476;28;20112;-85
2023/05/17 08:10:55;;;;;;;9.80;2.20;;;;;;;-148.88;73.67;-17125.47;5015620;28;20107;-86
2023/05/17 08:13:24;;;;;;;9.10;2.20;;;;;;;-148.88;78.29;-17125.47;5000018;28;20041;-86
2023/05/17 08:15:49;;;;;;;8.45;1.58;;;;;;;-148.88;74.02;-17125.47;4998422;28;20026;-86
2023/05/17 08:18:14;;;;;;;11.77;2.30;;;;;;;-148.88;75.41;-17125.47;5015426;28;20104;-86
2023/05/17 08:20:49;;;;;;;7.03;1.25;;;;;;;-148.88;70.26;-17125.47;4998152;28;20041;-86
2023/05/17 08:23:23;;;;;;;6.90;1.23;;;;;;;-148.88;69.07;-17125.47;4998600;28;20034;-86
2023/05/17 08:25:48;;;;;;;7.50;1.90;;;;;;;-148.88;70.31;-17125.47;4999559;28;20029;-87
2023/05/17 08:28:14;;;;;;;9.98;2.30;;;;;;;-148.88;71.33;-17125.47;4997190;28;20048;-86
2023/05/17 08:30:40;;;;;;;4.65;0.90;;;;;;;-148.88;69.56;-17125.47;5000231;28;20076;-86
2023/05/17 08:33:08;;;;;;;3.90;1.48;;;;;;;-148.88;68.47;-17125.47;4999192;28;20034;-86
2023/05/17 08:35:33;;;;;;;9.88;2.20;;;;;;;-148.88;68.93;-17125.47;4999110;28;20045;-87
2023/05/17 08:37:59;;;;;;;8.77;1.42;;;;;;;-148.88;69.61;-17125.47;4997945;28;20448;-86
2023/05/17 08:40:30;;;;;;;7.25;1.33;;;;;;;-148.88;69.11;-17125.47;4998423;28;20079;-86
2023/05/17 08:43:11;;;;;;;8.40;2.05;;;;;;;-148.88;69.99;-17125.47;4998989;28;20064;-85
2023/05/17 08:45:43;;;;;;;10.68;2.17;;;;;;;-148.88;71.86;-17125.47;5016444;28;20048;-85
2023/05/17 08:48:16;;;;;;;7.13;2.05;;;;;;;-148.88;69.15;-17125.47;5016879;28;20053;-84
2023/05/17 08:50:43;;;;;;;10.38;2.05;;;;;;;-148.88;71.85;-17125.47;4999306;28;20472;-85
2023/05/17 08:53:13;;;;;;;9.32;1.85;;;;;;;-148.88;69.04;-17125.47;5000581;28;20399;-85
2023/05/17 08:55:52;;;;;;;11.38;2.17;;;;;;;-148.88;69.13;-17125.47;5017584;28;20514;-85
2023/05/17 08:58:23;;;;;;;5.40;1.80;;;;;;;-148.88;65.63;-17125.47;5002601;28;20022;-85
2023/05/17 09:00:55;;;;;;;9.95;1.35;;;;;;;-148.88;67.39;-17125.47;5020146;28;20435;-85
2023/05/17 09:03:21;;;;;;;8.57;1.98;;;;;;;-148.88;65.03;-17125.47;5004678;28;20027;-85
2023/05/17 09:05:52;;;;;;;10.55;1.23;;;;;;;-148.88;71.15;-17125.47;5007362;28;20030;-85
2023/05/17 09:08:21;;;;;;;9.50;1.90;;;;;;;-148.88;73.17;-17125.47;5023336;28;20472;-85
2023/05/17 09:10:51;;;;;;;6.78;1.73;;;;;;;-148.88;73.11;-17125.47;5005563;28;20029;-84
2023/05/17 09:13:17;;;;;;;8.55;1.20;;;;;;;-148.88;67.76;-17125.47;5005314;28;20026;-83
2023/05/17 09:15:54;;;;;;;5.15;1.27;;;;;;;-148.88;68.33;-17125.47;5005430;28;20051;-84
2023/05/17 09:18:31;;;;;;;4.65;1.27;;;;;;;-148.88;72.32;-17125.47;5002679;28;20018;-85
2023/05/17 09:21:02;;;;;;;10.48;1.75;;;;;;;-148.88;73.54;-17125.47;5003483;28;20018;-85
2023/05/17 09:23:30;;;;;;;14.15;2.38;;;;;;;-148.88;71.62;-17125.47;5003750;28;20058;-83
2023/05/17 09:26:04;;;;;;;6.53;1.85;;;;;;;-148.88;68.91;-17125.47;5021584;28;20029;-84
2023/05/17 09:28:37;;;;;;;9.88;2.10;;;;;;;-148.88;67.81;-17125.47;5004989;28;20053;-84
2023/05/17 09:31:07;;;;;;;8.43;1.33;;;;;;;-148.88;69.11;-17125.47;5021959;28;20030;-84
2023/05/17 09:33:33;;;;;;;11.13;2.28;;;;;;;-148.88;76.95;-17125.47;5026456;28;20090;-86
2023/05/17 09:36:01;;;;;;;7.18;1.42;;;;;;;-148.88;73.52;-17125.47;5026828;28;20030;-86
2023/05/17 09:38:27;;;;;;;11.07;1.65;;;;;;;-148.88;71.78;-17125.47;5022739;28;20014;-86
2023/05/17 09:40:55;;;;;;;10.52;2.47;;;;;;;-148.88;69.17;-17125.47;5001512;28;20101;-85
2023/05/17 09:43:36;;;;;;;8.57;1.55;;;;;;;-148.88;72.72;-17125.47;5006519;28;20026;-85
2023/05/17 09:46:01;;;;;;;7.93;1.60;;;;;;;-148.88;73.45;-17125.47;5006345;28;20085;-85
2023/05/17 09:48:29;;;;;;;13.70;2.92;;;;;;;-148.88;64.25;-17125.47;5023607;28;20416;-86
2023/05/17 09:50:54;;;;;;;6.55;2.05;;;;;;;-148.88;60.35;-17125.47;5001591;28;20084;-86
2023/05/17 09:53:31;;;;;;;13.60;2.58;;;;;;;-148.88;60.13;-17125.47;5020725;28;20025;-86
2023/05/17 09:55:59;;;;;;;9.85;2.42;;;;;;;-148.88;60.05;-17125.47;5018945;28;20026;-84
2023/05/17 09:58:35;;;;;;;7.00;1.30;;;;;;;-148.88;63.55;-17125.47;5019420;28;20437;-85
2023/05/17 10:01:11;;;;;;;9.25;1.98;;;;;;;-148.88;55.23;-17125.47;5002492;28;20018;-85
2023/05/17 10:03:37;;;;;;;8.02;2.13;;;;;;;-148.88;56.93;-17125.47;5003420;28;20026;-85
2023/05/17 10:06:10;;;;;;;9.48;2.63;;;;;;;-148.88;60.84;-17125.47;5003310;28;20029;-84
2023/05/17 10:08:42;;;;;;;11.00;2.67;;;;;;;-148.88;58.72;-17125.47;5003519;28;20044;-86
2023/05/17 10:11:08;;;;;;;9.52;2.78;;;;;;;-148.88;58.76;-17125.47;5005090;28;20082;-84
2023/05/17 10:14:00;;;;;;;10.63;2.22;;;;;;;-148.88;60.56;-17125.47;5003718;28;20036;-86
2023/05/17 10:16:37;;;;;;;7.95;2.30;;;;;;;-148.88;54.37;-17125.47;5006519;28;20345;-85
2023/05/17 10:19:09;;;;;;;8.85;2.60;;;;;;;-148.88;54.55;-17125.47;5007979;28;20022;-85
2023/05/17 10:21:39;;;;;;;7.40;2.20;;;;;;;-148.88;60.59;-17125.47;5022170;28;20026;-85
2023/05/17 10:24:06;;;;;;;10.10;2.40;;;;;;;-148.88;52.64;-17125.47;5005345;28;20021;-85
2023/05/17 10:26:40;;;;;;;9.82;2.65;;;;;;;-148.88;52.98;-17125.47;5023197;28;20484;-83
2023/05/17 10:29:11;;;;;;;10.27;2.25;;;;;;;-148.88;56.50;-17125.47;5024147;28;20021;-86
2023/05/17 10:31:37;;;;;;;8.70;2.20;;;;;;;-148.88;58.04;-17125.47;5014160;28;20022;-84
2023/05/17 10:34:05;;;;;;;11.25;2.58;;;;;;;-148.88;53.54;-17125.47;5005387;28;20034;-86
2023/05/17 10:36:35;;;;;;;9.65;2.40;;;;;;;-148.88;52.49;-17125.47;5021527;28;20030;-85
2023/05/17 10:39:03;;;;;;;12.23;2.55;;;;;;;-148.88;56.85;-17125.47;5024178;28;20018;-85
2023/05/17 10:41:37;;;;;;;8.68;2.35;;;;;;;-148.88;58.17;-17125.47;5006228;28;20026;-84
2023/05/17 10:44:11;;;;;;;8.80;2.10;;;;;;;-148.88;51.43;-17125.47;5006914;28;20026;-86
2023/05/17 10:46:49;;;;;;;10.55;2.60;;;;;;;-148.88;54.56;-17125.47;5006531;28;20537;-85
2023/05/17 10:49:18;;;;;;;9.60;2.58;;;;;;;-148.88;57.13;-17125.47;5005652;28;20038;-85
2023/05/17 10:51:46;;;;;;;8.25;2.30;;;;;;;-148.88;60.61;-17125.47;5024625;28;20099;-86
2023/05/17 10:54:19;;;;;;;12.95;3.67;;;;;;;-148.88;56.78;-17125.47;5006971;28;20030;-84
2023/05/17 10:56:52;;;;;;;10.20;2.10;;;;;;;-148.88;59.11;-17125.47;5004889;28;20026;-86
2023/05/17 10:59:28;;;;;;;10.68;2.75;;;;;;;-148.88;55.85;-17125.47;5002119;28;20037;-85
2023/05/17 11:02:10;;;;;;;11.40;2.78;;;;;;;-148.88;56.29;-17125.47;5002694;28;20125;-85